createdAt,value
2019-02-11T00:01:40.736Z,98201.18
2019-02-11T00:04:09.810Z,98196.66
2019-02-11T00:06:39.610Z,98197.05
2019-02-11T00:09:11.602Z,98194.69
2019-02-11T00:11:40.707Z,98193.87
2019-02-11T00:14:09.848Z,98198.89
2019-02-11T00:16:40.362Z,98191.73
2019-02-11T00:19:11.052Z,98202.86
2019-02-11T00:21:40.254Z,98200.21
2019-02-11T00:24:09.346Z,98210.75
2019-02-11T00:26:38.480Z,98209.33
2019-02-11T00:29:07.597Z,98212.04
2019-02-11T00:31:36.677Z,98216.83
2019-02-11T00:34:06.274Z,98214.81
2019-02-11T00:36:35.454Z,98221.73
2019-02-11T00:39:05.608Z,98229.71
2019-02-11T00:41:34.757Z,98231.30
2019-02-11T00:44:03.800Z,98238.22
2019-02-11T00:46:36.625Z,98245.23
2019-02-11T00:49:05.971Z,98244.41
2019-02-11T00:51:35.305Z,98254.44
2019-02-11T00:54:04.471Z,98254.81
2019-02-11T00:56:34.871Z,98264.86
2019-02-11T00:59:05.334Z,98271.79
2019-02-11T01:01:35.276Z,98271.44
2019-02-11T01:04:04.580Z,98272.02
2019-02-11T01:06:33.906Z,98273.92
2019-02-11T01:09:03.130Z,98284.07
2019-02-11T01:11:32.247Z,98300.70
2019-02-11T01:14:01.452Z,98292.55
2019-02-11T01:16:30.877Z,98294.70
2019-02-11T01:18:59.965Z,98299.03
2019-02-11T01:21:29.009Z,98300.56
2019-02-11T01:23:58.197Z,98312.86
2019-02-11T01:26:27.305Z,98314.17
2019-02-11T01:28:56.434Z,98304.03
2019-02-11T01:31:25.647Z,98304.27
2019-02-11T01:33:55.050Z,98325.19
2019-02-11T01:36:24.394Z,98320.05
2019-02-11T01:38:53.532Z,98339.28
2019-02-11T01:41:22.635Z,98334.84
2019-02-11T01:43:51.967Z,98336.28
2019-02-11T01:46:21.216Z,98344.78
2019-02-11T01:48:50.292Z,98348.34
2019-02-11T01:51:19.456Z,98346.92
2019-02-11T01:53:48.554Z,98355.06
2019-02-11T01:56:17.663Z,98363.78
2019-02-11T01:58:46.769Z,98362.48
2019-02-11T02:01:15.886Z,98359.27
2019-02-11T02:03:44.984Z,98373.02
2019-02-11T02:06:14.088Z,98368.48
2019-02-11T02:08:43.341Z,98368.96
2019-02-11T02:11:12.469Z,98386.41
2019-02-11T02:13:44.756Z,98390.81
2019-02-11T02:16:12.474Z,98396.69
2019-02-11T02:18:41.553Z,98407.44
2019-02-11T02:21:10.696Z,98407.56
2019-02-11T02:23:39.755Z,98421.66
2019-02-11T02:26:08.869Z,98422.16
2019-02-11T02:28:37.988Z,98425.49
2019-02-11T02:31:07.154Z,98427.75
2019-02-11T02:33:36.339Z,98424.88
2019-02-11T02:36:05.493Z,98436.27
2019-02-11T02:38:34.610Z,98429.79
2019-02-11T02:41:03.781Z,98445.45
2019-02-11T02:43:33.325Z,98451.91
2019-02-11T02:46:02.508Z,98454.67
2019-02-11T02:48:31.612Z,98447.14
2019-02-11T02:51:00.712Z,98460.87
2019-02-11T02:53:29.846Z,98461.00
2019-02-11T02:55:58.935Z,98467.19
2019-02-11T02:58:28.001Z,98468.66
2019-02-11T03:00:57.150Z,98476.39
2019-02-11T03:03:26.206Z,98479.52
2019-02-11T03:05:55.384Z,98477.49
2019-02-11T03:08:24.508Z,98484.20
2019-02-11T03:10:53.657Z,98488.02
2019-02-11T03:13:22.774Z,98482.90
2019-02-11T03:15:51.895Z,98493.87
2019-02-11T03:18:21.031Z,98498.77
2019-02-11T03:20:50.224Z,98500.58
2019-02-11T03:23:19.303Z,98512.04
2019-02-11T03:25:48.377Z,98518.74
2019-02-11T03:28:17.504Z,98522.58
2019-02-11T03:30:46.628Z,98518.96
2019-02-11T03:33:15.750Z,98527.09
2019-02-11T03:35:44.870Z,98533.51
2019-02-11T03:38:14.042Z,98539.83
2019-02-11T03:40:43.168Z,98540.36
2019-02-11T03:43:12.370Z,98547.01
2019-02-11T03:45:41.485Z,98536.63
2019-02-11T03:48:10.566Z,98541.64
2019-02-11T03:50:39.735Z,98540.80
2019-02-11T03:53:08.783Z,98553.47
2019-02-11T03:55:37.919Z,98556.31
2019-02-11T03:58:06.995Z,98560.97
2019-02-11T04:00:36.095Z,98570.56
2019-02-11T04:03:05.200Z,98568.50
2019-02-11T04:05:34.277Z,98583.21
2019-02-11T04:08:03.403Z,98590.19
2019-02-11T04:10:32.574Z,98599.44
2019-02-11T04:13:01.697Z,98606.32
2019-02-11T04:15:30.822Z,98615.27
2019-02-11T04:18:00.072Z,98624.47
2019-02-11T04:20:29.168Z,98636.89
2019-02-11T04:22:58.326Z,98644.48
2019-02-11T04:25:28.182Z,98645.64
2019-02-11T04:27:57.482Z,98639.27
2019-02-11T04:30:26.602Z,98644.52
2019-02-11T04:32:55.751Z,98649.52
2019-02-11T04:35:24.803Z,98650.84
2019-02-11T04:37:53.936Z,98653.20
2019-02-11T04:40:23.216Z,98657.39
2019-02-11T04:42:52.560Z,98659.19
2019-02-11T04:45:21.899Z,98670.09
2019-02-11T04:47:51.096Z,98672.53
2019-02-11T04:50:20.264Z,98678.64
2019-02-11T04:52:49.853Z,98679.94
2019-02-11T04:55:19.706Z,98687.82
2019-02-11T04:57:48.834Z,98703.48
2019-02-11T05:00:18.529Z,98706.80
2019-02-11T05:02:47.820Z,98710.94
2019-02-11T05:05:16.984Z,98714.77
2019-02-11T05:07:46.160Z,98721.67
2019-02-11T05:10:15.357Z,98719.86
2019-02-11T05:12:44.450Z,98732.20
2019-02-11T05:15:13.567Z,98732.41
2019-02-11T05:17:42.680Z,98732.20
2019-02-11T05:20:11.768Z,98733.48
2019-02-11T05:22:40.897Z,98739.98
2019-02-11T05:25:09.961Z,98739.20
2019-02-11T05:27:39.101Z,98734.73
2019-02-11T05:30:08.629Z,98740.15
2019-02-11T05:32:37.740Z,98740.67
2019-02-11T05:35:06.995Z,98750.20
2019-02-11T05:37:36.174Z,98756.58
2019-02-11T05:40:05.789Z,98757.72
2019-02-11T05:42:34.914Z,98760.11
2019-02-11T05:45:04.031Z,98766.41
2019-02-11T05:47:33.134Z,98767.33
2019-02-11T05:50:02.291Z,98769.95
2019-02-11T05:52:31.376Z,98783.13
2019-02-11T05:55:00.452Z,98783.22
2019-02-11T05:57:29.603Z,98788.35
2019-02-11T05:59:58.708Z,98792.80
2019-02-11T06:02:27.882Z,98795.11
2019-02-11T06:04:57.012Z,98806.97
2019-02-11T06:07:26.229Z,98806.75
2019-02-11T06:09:55.424Z,98816.16
2019-02-11T06:12:24.677Z,98824.79
2019-02-11T06:14:55.436Z,98831.12
2019-02-11T06:17:24.808Z,98840.59
2019-02-11T06:19:53.959Z,98844.74
2019-02-11T06:22:23.111Z,98844.65
2019-02-11T06:24:52.260Z,98851.45
2019-02-11T06:27:21.423Z,98861.09
2019-02-11T06:29:50.619Z,98865.52
2019-02-11T06:32:19.733Z,98867.86
2019-02-11T06:34:48.990Z,98874.79
2019-02-11T06:37:18.118Z,98882.75
2019-02-11T06:39:48.578Z,98898.67
2019-02-11T06:42:17.645Z,98894.56
2019-02-11T06:44:46.824Z,98898.09
2019-02-11T06:47:15.941Z,98910.55
2019-02-11T06:49:45.272Z,98906.19
2019-02-11T06:52:14.362Z,98911.86
2019-02-11T06:54:43.527Z,98916.66
2019-02-11T06:57:12.673Z,98928.14
2019-02-11T06:59:41.957Z,98930.72
2019-02-11T07:02:11.078Z,98942.70
2019-02-11T07:04:40.173Z,98942.37
2019-02-11T07:07:09.514Z,98952.92
2019-02-11T07:09:38.672Z,98970.35
2019-02-11T07:12:08.530Z,98971.00
2019-02-11T07:14:37.984Z,98977.38
2019-02-11T07:17:07.146Z,98979.25
2019-02-11T07:19:36.356Z,98985.05
2019-02-11T07:22:05.420Z,98991.70
2019-02-11T07:24:35.143Z,98998.38
2019-02-11T07:27:04.280Z,99005.23
2019-02-11T07:29:33.372Z,99005.00
2019-02-11T07:32:02.532Z,99013.45
2019-02-11T07:34:31.687Z,98982.27
2019-02-11T07:37:00.843Z,99031.72
2019-02-11T07:39:30.132Z,99034.69
2019-02-11T07:42:26.130Z,99030.80
2019-02-11T07:44:57.632Z,99038.95
2019-02-11T07:47:27.337Z,99046.14
2019-02-11T07:49:56.453Z,99049.58
2019-02-11T07:52:27.095Z,99056.66
2019-02-11T07:54:57.011Z,99054.70
2019-02-11T07:57:26.692Z,99057.61
2019-02-11T07:59:57.287Z,99048.66
2019-02-11T08:02:26.617Z,99054.68
2019-02-11T08:04:56.250Z,99058.24
2019-02-11T08:07:25.483Z,99062.13
2019-02-11T08:09:54.760Z,99071.56
2019-02-11T08:12:24.054Z,99065.53
2019-02-11T08:14:53.180Z,99076.33
2019-02-11T08:17:23.027Z,99084.70
2019-02-11T08:19:52.307Z,99082.41
2019-02-11T08:22:21.487Z,99092.52
2019-02-11T08:24:50.658Z,99091.16
2019-02-11T08:27:20.092Z,99097.91
2019-02-11T08:29:51.295Z,99094.05
2019-02-11T08:32:23.769Z,99095.16
2019-02-11T08:34:53.002Z,99106.42
2019-02-11T08:37:22.200Z,99106.22
2019-02-11T08:39:51.301Z,99119.39
2019-02-11T08:42:20.866Z,99090.73
2019-02-11T08:44:50.116Z,99129.33
2019-02-11T08:47:19.881Z,99132.55
2019-02-11T08:49:49.107Z,99136.97
2019-02-11T08:52:18.380Z,99147.50
2019-02-11T08:54:47.506Z,99147.49
2019-02-11T08:57:16.669Z,99152.03
2019-02-11T08:59:45.900Z,99162.23
2019-02-11T09:02:15.361Z,99164.69
2019-02-11T09:04:44.533Z,99173.31
2019-02-11T09:07:14.025Z,99167.40
2019-02-11T09:09:43.131Z,99173.41
2019-02-11T09:12:12.289Z,99175.61
2019-02-11T09:14:51.918Z,99177.33
2019-02-11T09:17:21.074Z,99190.80
2019-02-11T09:19:50.162Z,99187.14
2019-02-11T09:22:20.868Z,99199.11
2019-02-11T09:24:50.055Z,99207.60
2019-02-11T09:27:19.254Z,99211.75
2019-02-11T09:29:48.298Z,99214.51
2019-02-11T09:32:18.268Z,99218.95
2019-02-11T09:34:47.519Z,99224.58
2019-02-11T09:37:18.150Z,99216.40
2019-02-11T09:39:47.295Z,99227.52
2019-02-11T09:42:16.443Z,99230.61
2019-02-11T09:44:45.589Z,99234.89
2019-02-11T09:47:14.823Z,99238.83
2019-02-11T09:49:43.880Z,99244.58
2019-02-11T09:52:13.081Z,99255.31
2019-02-11T09:54:42.232Z,99260.47
2019-02-11T09:57:11.409Z,99266.69
2019-02-11T09:59:44.830Z,99270.31
2019-02-11T10:02:15.236Z,99282.64
2019-02-11T10:04:44.314Z,99290.84
2019-02-11T10:07:13.480Z,99303.30
2019-02-11T10:09:42.670Z,99307.97
2019-02-11T10:12:11.856Z,99310.78
2019-02-11T10:14:41.187Z,99317.81
2019-02-11T10:17:10.299Z,99328.18
2019-02-11T10:19:39.670Z,99322.92
2019-02-11T10:22:08.972Z,99320.56
2019-02-11T10:24:46.234Z,99326.03
2019-02-11T10:27:15.476Z,99326.42
2019-02-11T10:29:44.546Z,99330.14
2019-02-11T10:32:13.767Z,99339.86
2019-02-11T10:34:44.378Z,99340.34
2019-02-11T10:37:13.540Z,99341.19
2019-02-11T10:39:42.659Z,99346.74
2019-02-11T10:42:11.850Z,99350.12
2019-02-11T10:44:41.008Z,99362.66
2019-02-11T10:47:10.192Z,99359.00
2019-02-11T10:49:39.408Z,99371.37
2019-02-11T10:52:08.454Z,99372.81
2019-02-11T10:54:37.625Z,99380.97
2019-02-11T10:57:06.755Z,99378.27
2019-02-11T10:59:35.952Z,99381.98
2019-02-11T11:02:05.053Z,99389.36
2019-02-11T11:04:34.235Z,99390.63
2019-02-11T11:07:03.479Z,99385.61
2019-02-11T11:09:32.630Z,99390.56
2019-02-11T11:12:01.732Z,99398.55
2019-02-11T11:14:30.899Z,99401.94
2019-02-11T11:17:00.027Z,99398.58
2019-02-11T11:19:29.185Z,99400.32
2019-02-11T11:21:58.888Z,99403.97
2019-02-11T11:24:28.048Z,99402.16
2019-02-11T11:26:57.371Z,99402.98
2019-02-11T11:29:27.238Z,99413.89
2019-02-11T11:31:56.751Z,99405.30
2019-02-11T11:34:25.958Z,99408.13
2019-02-11T11:36:55.074Z,99409.92
2019-02-11T11:39:26.928Z,99424.03
2019-02-11T11:41:57.340Z,99424.22
2019-02-11T11:44:27.311Z,99417.05
2019-02-11T11:46:58.363Z,99425.39
2019-02-11T11:49:30.814Z,99428.92
2019-02-11T11:52:03.265Z,99427.50
2019-02-11T11:54:34.732Z,99428.56
2019-02-11T11:57:06.689Z,99436.84
2019-02-11T11:59:38.342Z,99436.70
2019-02-11T12:02:09.891Z,99439.08
2019-02-11T12:04:39.405Z,99444.00
2019-02-11T12:07:08.493Z,99445.06
2019-02-11T12:09:37.924Z,99450.66
2019-02-11T12:12:07.659Z,99453.77
2019-02-11T12:14:37.271Z,99447.92
2019-02-11T12:17:06.503Z,99449.31
2019-02-11T12:19:35.613Z,99451.84
2019-02-11T12:22:06.877Z,99453.52
2019-02-11T12:24:38.502Z,99448.41
2019-02-11T12:27:08.043Z,99453.24
2019-02-11T12:29:44.437Z,99447.99
2019-02-11T12:32:17.025Z,99454.30
2019-02-11T12:34:46.285Z,99453.09
2019-02-11T12:37:18.349Z,99450.70
2019-02-11T12:39:49.075Z,99452.06
2019-02-11T12:42:18.218Z,99443.28
2019-02-11T12:44:47.384Z,99461.88
2019-02-11T12:47:16.717Z,99454.11
2019-02-11T12:49:45.957Z,99463.31
2019-02-11T12:52:15.868Z,99466.61
2019-02-11T12:54:45.626Z,99471.81
2019-02-11T12:57:14.870Z,99468.47
2019-02-11T12:59:44.267Z,99477.19
2019-02-11T13:02:14.098Z,99487.98
2019-02-11T13:04:43.626Z,99490.86
2019-02-11T13:07:12.908Z,99496.27
2019-02-11T13:09:42.016Z,99501.64
2019-02-11T13:12:11.132Z,99509.36
2019-02-11T13:14:40.655Z,99503.46
2019-02-11T13:17:15.419Z,99510.90
2019-02-11T13:19:40.659Z,99510.63
2019-02-11T13:22:09.803Z,99520.86
2019-02-11T13:24:38.968Z,99517.95
2019-02-11T13:27:08.124Z,99524.00
2019-02-11T13:29:37.225Z,99519.97
2019-02-11T13:32:10.439Z,99519.91
2019-02-11T13:34:39.450Z,99080.05
2019-02-11T13:37:08.599Z,99520.34
2019-02-11T13:39:38.986Z,99518.23
2019-02-11T13:42:08.318Z,99520.81
2019-02-11T13:44:37.453Z,99537.92
2019-02-11T13:47:07.015Z,99543.50
2019-02-11T13:49:36.210Z,99544.83
2019-02-11T13:52:05.595Z,99549.56
2019-02-11T13:54:35.341Z,99556.88
2019-02-11T13:57:04.856Z,99566.20
2019-02-11T13:59:34.377Z,99579.61
2019-02-11T14:02:03.589Z,99585.93
2019-02-11T14:04:33.014Z,99578.92
2019-02-11T14:07:02.845Z,99592.02
2019-02-11T14:09:32.762Z,99591.48
2019-02-11T14:12:04.296Z,99602.78
2019-02-11T14:14:33.612Z,99564.89
2019-02-11T14:17:03.061Z,99603.56
2019-02-11T14:19:32.643Z,99611.50
2019-02-11T14:22:02.405Z,99609.38
2019-02-11T14:24:32.224Z,99630.27
2019-02-11T14:27:01.989Z,99638.28
2019-02-11T14:29:31.778Z,99644.23
2019-02-11T14:32:01.209Z,99652.23
2019-02-11T14:34:31.159Z,99654.94
2019-02-11T14:37:01.039Z,99664.22
2019-02-11T14:39:30.944Z,99663.69
2019-02-11T14:42:00.495Z,99668.84
2019-02-11T14:44:29.745Z,99671.88
2019-02-11T14:46:58.977Z,99674.42
2019-02-11T14:49:28.048Z,99680.34
2019-02-11T14:51:57.181Z,99678.63
2019-02-11T14:54:26.380Z,99693.59
2019-02-11T14:56:56.554Z,99701.91
2019-02-11T14:59:25.771Z,99694.98
2019-02-11T15:01:54.940Z,99700.33
2019-02-11T15:04:24.215Z,99696.83
2019-02-11T15:07:00.532Z,99703.08
2019-02-11T15:09:29.762Z,99698.08
2019-02-11T15:12:00.313Z,99692.52
2019-02-11T15:14:29.480Z,99696.24
2019-02-11T15:16:58.715Z,99697.88
2019-02-11T15:19:34.447Z,99707.82
2019-02-11T15:22:04.623Z,99710.89
2019-02-11T15:24:33.778Z,99722.95
2019-02-11T15:27:02.904Z,99731.52
2019-02-11T15:29:33.324Z,99744.03
2019-02-11T15:32:02.449Z,99750.05
2019-02-11T15:34:31.786Z,99754.78
2019-02-11T15:37:00.841Z,99755.97
2019-02-11T15:39:29.982Z,99756.95
2019-02-11T15:41:59.059Z,99749.53
2019-02-11T15:44:28.242Z,99757.58
2019-02-11T15:46:57.383Z,99756.13
2019-02-11T15:49:26.598Z,99756.27
2019-02-11T15:51:55.834Z,99747.83
2019-02-11T15:54:25.015Z,99751.52
2019-02-11T15:56:54.133Z,99751.33
2019-02-11T15:59:23.306Z,99749.16
2019-02-11T16:01:52.460Z,99740.50
2019-02-11T16:04:21.554Z,99749.31
2019-02-11T16:06:50.688Z,99753.12
2019-02-11T16:09:19.937Z,99748.70
2019-02-11T16:11:49.018Z,99756.61
2019-02-11T16:14:18.175Z,99760.85
2019-02-11T16:16:47.312Z,99758.34
2019-02-11T16:19:16.464Z,99760.14
2019-02-11T16:21:45.547Z,99753.38
2019-02-11T16:24:14.693Z,99761.59
2019-02-11T16:26:43.838Z,99755.11
2019-02-11T16:29:13.051Z,99759.41
2019-02-11T16:31:42.227Z,99776.72
2019-02-11T16:34:11.344Z,99790.67
2019-02-11T16:36:43.791Z,99804.05
2019-02-11T16:39:12.911Z,99833.05
2019-02-11T16:41:42.036Z,99833.33
2019-02-11T16:44:11.872Z,99840.75
2019-02-11T16:46:41.081Z,99841.49
2019-02-11T16:49:10.259Z,99857.52
2019-02-11T16:51:39.422Z,99853.39
2019-02-11T16:54:08.492Z,99856.03
2019-02-11T16:56:37.644Z,99866.54
2019-02-11T16:59:06.698Z,99866.66
2019-02-11T17:01:35.930Z,99862.70
2019-02-11T17:04:05.113Z,99867.03
2019-02-11T17:06:34.309Z,99876.92
2019-02-11T17:09:04.704Z,99882.62
2019-02-11T17:11:33.875Z,99886.29
2019-02-11T17:14:03.015Z,99900.85
2019-02-11T17:16:32.306Z,99903.95
2019-02-11T17:19:08.871Z,99900.95
2019-02-11T17:21:32.233Z,99902.37
2019-02-11T17:24:01.338Z,99891.22
2019-02-11T17:26:33.115Z,99894.70
2019-02-11T17:29:03.692Z,99913.39
2019-02-11T17:31:32.877Z,99931.38
2019-02-11T17:34:02.123Z,99941.24
2019-02-11T17:36:31.279Z,99939.71
2019-02-11T17:39:00.458Z,99941.93
2019-02-11T17:41:29.666Z,99949.31
2019-02-11T17:43:58.751Z,99944.70
2019-02-11T17:46:28.282Z,99951.41
2019-02-11T17:49:02.222Z,99962.16
2019-02-11T17:51:31.423Z,99977.38
2019-02-11T17:54:00.595Z,99980.23
2019-02-11T17:56:29.791Z,99991.69
2019-02-11T17:59:00.228Z,99989.97
2019-02-11T18:01:29.398Z,99987.52
2019-02-11T18:03:58.535Z,99988.27
2019-02-11T18:06:27.747Z,100005.80
2019-02-11T18:08:56.879Z,100023.22
2019-02-11T18:11:26.097Z,100038.77
2019-02-11T18:13:55.248Z,100033.44
2019-02-11T18:16:24.607Z,100029.91
2019-02-11T18:18:53.786Z,100032.80
2019-02-11T18:21:23.027Z,100042.84
2019-02-11T18:23:52.176Z,100047.78
2019-02-11T18:26:23.794Z,100060.86
2019-02-11T18:28:55.777Z,100072.24
2019-02-11T18:31:25.058Z,100058.86
2019-02-11T18:33:54.129Z,100080.43
2019-02-11T18:36:23.304Z,100080.28
2019-02-11T18:38:52.423Z,100087.16
2019-02-11T18:41:21.568Z,100085.86
2019-02-11T18:43:50.707Z,100093.53
2019-02-11T18:46:19.843Z,100100.98
2019-02-11T18:48:49.039Z,100119.06
2019-02-11T18:51:18.148Z,100122.01
2019-02-11T18:53:47.355Z,100127.39
2019-02-11T18:56:16.421Z,100122.69
2019-02-11T18:58:45.586Z,100128.09
2019-02-11T19:01:14.769Z,100125.72
2019-02-11T19:03:44.099Z,100124.53
2019-02-11T19:06:13.245Z,100133.03
2019-02-11T19:08:42.331Z,100134.28
2019-02-11T19:11:11.364Z,100137.22
2019-02-11T19:13:40.527Z,100142.21
2019-02-11T19:16:10.673Z,100159.77
2019-02-11T19:18:39.769Z,100165.09
2019-02-11T19:21:08.966Z,100162.30
2019-02-11T19:23:38.125Z,100166.63
2019-02-11T19:26:09.176Z,100173.45
2019-02-11T19:28:38.322Z,100186.52
2019-02-11T19:31:07.435Z,100189.23
2019-02-11T19:33:36.649Z,100181.04
2019-02-11T19:36:05.715Z,100181.11
2019-02-11T19:38:34.857Z,100180.59
2019-02-11T19:41:05.012Z,100192.77
2019-02-11T19:43:34.088Z,100185.63
2019-02-11T19:46:03.243Z,100200.28
2019-02-11T19:48:33.415Z,100204.08
2019-02-11T19:51:02.522Z,100210.66
2019-02-11T19:53:31.583Z,100211.28
2019-02-11T19:56:00.618Z,100212.42
2019-02-11T19:58:30.842Z,100220.63
2019-02-11T20:00:59.900Z,100229.02
2019-02-11T20:03:28.975Z,100217.62
2019-02-11T20:05:58.007Z,100217.60
2019-02-11T20:08:28.383Z,100215.53
2019-02-11T20:10:57.463Z,100219.17
2019-02-11T20:13:26.521Z,100219.55
2019-02-11T20:15:55.674Z,100220.63
2019-02-11T20:18:24.776Z,100217.99
2019-02-11T20:20:55.887Z,100221.25
2019-02-11T20:23:24.982Z,100215.45
2019-02-11T20:25:54.092Z,100220.72
2019-02-11T20:28:23.213Z,100217.41
2019-02-11T20:30:52.368Z,100220.56
2019-02-11T20:33:21.477Z,100227.31
2019-02-11T20:35:52.893Z,100228.09
2019-02-11T20:38:23.950Z,100240.80
2019-02-11T20:40:55.074Z,100238.47
2019-02-11T20:43:24.159Z,100239.16
2019-02-11T20:45:53.307Z,100232.48
2019-02-11T20:48:26.658Z,100237.37
2019-02-11T20:50:55.721Z,100244.44
2019-02-11T20:53:24.814Z,100238.91
2019-02-11T20:55:54.115Z,100223.44
2019-02-11T20:58:24.598Z,100210.34
2019-02-11T21:00:53.727Z,100211.34
2019-02-11T21:03:22.786Z,100212.91
2019-02-11T21:05:51.983Z,100211.13
2019-02-11T21:08:21.095Z,100224.13
2019-02-11T21:10:50.386Z,100224.38
2019-02-11T21:13:21.761Z,100228.06
2019-02-11T21:15:50.881Z,100241.47
2019-02-11T21:18:19.994Z,100243.24
2019-02-11T21:20:49.175Z,100249.16
2019-02-11T21:23:18.273Z,100264.59
2019-02-11T21:25:49.512Z,100273.86
2019-02-11T21:28:18.603Z,100284.57
2019-02-11T21:30:49.927Z,100293.64
2019-02-11T21:33:19.109Z,100300.41
2019-02-11T21:35:48.307Z,100197.00
2019-02-11T21:38:17.874Z,100303.94
2019-02-11T21:40:46.979Z,100315.88
2019-02-11T21:43:16.080Z,100331.34
2019-02-11T21:45:45.181Z,100336.20
2019-02-11T21:48:14.418Z,100334.52
2019-02-11T21:50:43.516Z,100343.20
2019-02-11T21:53:12.644Z,100343.33
2019-02-11T21:55:43.219Z,100350.31
2019-02-11T21:58:12.377Z,100366.91
2019-02-11T22:00:41.504Z,100367.08
2019-02-11T22:03:10.541Z,100378.70
2019-02-11T22:05:39.696Z,100380.66
2019-02-11T22:08:10.311Z,100386.64
2019-02-11T22:10:39.480Z,100385.20
2019-02-11T22:13:08.596Z,100384.88
2019-02-11T22:15:37.719Z,100384.61
2019-02-11T22:18:06.844Z,100384.88
2019-02-11T22:20:36.012Z,100392.58
2019-02-11T22:23:05.046Z,100392.58
2019-02-11T22:25:34.266Z,100334.30
2019-02-11T22:28:03.323Z,100396.45
2019-02-11T22:30:32.392Z,100394.34
2019-02-11T22:33:01.943Z,100396.62
2019-02-11T22:35:31.285Z,100398.91
2019-02-11T22:38:02.026Z,100398.59
2019-02-11T22:40:33.723Z,100398.19
2019-02-11T22:43:03.850Z,100407.72
2019-02-11T22:45:34.003Z,100410.60
2019-02-11T22:48:06.956Z,100412.65
2019-02-11T22:50:43.042Z,100411.75
2019-02-11T22:53:08.872Z,100410.02
2019-02-11T22:55:38.038Z,100417.09
2019-02-11T22:58:08.599Z,100409.47
2019-02-11T23:00:47.861Z,100412.47
2019-02-11T23:03:19.027Z,100417.11
2019-02-11T23:05:48.155Z,100416.28
2019-02-11T23:08:19.332Z,100423.42
2019-02-11T23:10:51.636Z,100421.02
2019-02-11T23:13:23.576Z,100432.30
2019-02-11T23:15:54.468Z,100442.98
2019-02-11T23:18:25.008Z,100437.40
2019-02-11T23:20:54.092Z,100446.45
2019-02-11T23:23:23.363Z,100449.08
2019-02-11T23:25:54.547Z,100457.36
2019-02-11T23:28:26.041Z,100480.80
2019-02-11T23:30:55.219Z,100483.43
2019-02-11T23:33:25.347Z,100488.72
2019-02-11T23:35:54.475Z,100486.14
2019-02-11T23:38:23.596Z,100484.37
2019-02-11T23:40:52.766Z,100490.14
2019-02-11T23:43:21.960Z,100484.61
2019-02-11T23:45:52.589Z,100485.67
2019-02-11T23:48:23.839Z,100495.72
2019-02-11T23:51:00.268Z,100492.53
2019-02-11T23:53:23.911Z,100490.31
2019-02-11T23:55:53.002Z,100494.95
2019-02-11T23:58:23.396Z,100485.21
